Time;durP1;ratioP1;P1;durP2;ratioP2;P2;SDS_P1;SDS_P2;PMS_P1;PMS_P2;Temp;Humidity;BMP_temperature;BMP_pressure;BME280_temperature;BME280_humidity;BME280_pressure;Samples;Min_cycle;Max_cycle;Signal;HPM_P1;HPM_P2
2022/04/09 00:01:56;;;;;;;;;4.00;4.00;;;;;;;;5099387;27;45465;-67
2022/04/09 00:04:21;;;;;;;;;10.00;4.00;;;;;;;;5114739;27;45553;-67
2022/04/09 00:06:46;;;;;;;;;4.00;4.00;;;;;;;;5099515;27;45427;-67
2022/04/09 00:09:11;;;;;;;;;6.50;3.75;;;;;;;;5099081;27;45350;-66
2022/04/09 00:11:36;;;;;;;;;4.00;4.00;;;;;;;;5099265;27;45423;-66
2022/04/09 00:14:02;;;;;;;;;7.67;4.67;;;;;;;;5099063;27;45348;-66
2022/04/09 00:16:27;;;;;;;;;4.00;4.00;;;;;;;;5098971;27;45425;-67
2022/04/09 00:18:52;;;;;;;;;4.00;4.00;;;;;;;;5099354;27;45447;-67
2022/04/09 00:21:17;;;;;;;;;2.67;2.67;;;;;;;;5114663;27;47271;-66
2022/04/09 00:23:43;;;;;;;;;6.67;4.33;;;;;;;;5098743;27;45435;-66
2022/04/09 00:26:08;;;;;;;;;8.33;4.00;;;;;;;;5098957;27;45295;-66
2022/04/09 00:28:33;;;;;;;;;3.67;2.67;;;;;;;;5098987;27;45384;-66
2022/04/09 00:30:58;;;;;;;;;7.00;3.67;;;;;;;;5080500;27;46670;-67
2022/04/09 00:33:24;;;;;;;;;4.33;4.33;;;;;;;;5098602;27;45372;-66
2022/04/09 00:35:49;;;;;;;;;8.33;5.00;;;;;;;;5098894;27;45376;-66
2022/04/09 00:38:14;;;;;;;;;10.67;6.33;;;;;;;;5098617;27;45421;-67
2022/04/09 00:40:39;;;;;;;;;4.00;2.33;;;;;;;;5098631;27;45280;-67
2022/04/09 00:43:05;;;;;;;;;3.33;2.33;;;;;;;;5098707;27;45327;-67
2022/04/09 00:45:30;;;;;;;;;5.00;4.33;;;;;;;;5098710;27;45289;-66
2022/04/09 00:47:56;;;;;;;;;6.67;5.00;;;;;;;;5098527;27;45335;-67
2022/04/09 00:50:21;;;;;;;;;7.33;5.00;;;;;;;;5098182;27;47330;-67
2022/04/09 00:52:47;;;;;;;;;8.67;6.00;;;;;;;;5098219;27;45214;-67
2022/04/09 00:55:13;;;;;;;;;6.67;1.00;;;;;;;;5098626;27;45488;-67
2022/04/09 00:57:40;;;;;;;;;5.33;5.33;;;;;;;;5098435;27;45303;-67
2022/04/09 01:00:09;;;;;;;;;4.00;4.00;;;;;;;;5086702;27;46584;-67
2022/04/09 01:02:39;;;;;;;;;8.33;5.33;;;;;;;;5098318;27;45408;-67
2022/04/09 01:05:05;;;;;;;;;8.00;8.00;;;;;;;;5098481;27;45336;-67
2022/04/09 01:07:30;;;;;;;;;4.67;4.00;;;;;;;;5098390;27;45418;-67
2022/04/09 01:09:55;;;;;;;;;9.33;5.33;;;;;;;;5097843;27;46332;-67
2022/04/09 01:12:21;;;;;;;;;9.33;5.67;;;;;;;;5098157;27;45411;-67
2022/04/09 01:14:46;;;;;;;;;8.33;5.67;;;;;;;;5098418;27;45454;-66
2022/04/09 01:17:11;;;;;;;;;11.67;5.00;;;;;;;;5098346;27;45331;-66
2022/04/09 01:19:37;;;;;;;;;9.33;6.33;;;;;;;;5098154;27;45539;-66
2022/04/09 01:22:03;;;;;;;;;8.67;7.00;;;;;;;;5098243;27;45437;-66
2022/04/09 01:24:28;;;;;;;;;8.00;8.00;;;;;;;;5098095;27;45346;-66
2022/04/09 01:26:53;;;;;;;;;8.00;7.00;;;;;;;;5098134;27;45316;-66
2022/04/09 01:29:19;;;;;;;;;10.00;7.67;;;;;;;;5097832;27;45381;-66
2022/04/09 01:31:45;;;;;;;;;9.00;8.67;;;;;;;;5098095;27;45416;-66
2022/04/09 01:34:12;;;;;;;;;12.67;9.00;;;;;;;;5098124;27;45221;-66
2022/04/09 01:36:38;;;;;;;;;8.67;7.33;;;;;;;;5098124;27;45395;-66
2022/04/09 01:39:04;;;;;;;;;10.67;9.00;;;;;;;;5097449;27;45640;-66
2022/04/09 01:41:29;;;;;;;;;14.67;10.67;;;;;;;;5097550;27;45328;-66
2022/04/09 01:43:54;;;;;;;;;14.67;13.33;;;;;;;;5098096;27;45220;-66
2022/04/09 01:46:19;;;;;;;;;13.67;10.67;;;;;;;;5097966;27;45306;-67
2022/04/09 01:48:45;;;;;;;;;9.33;8.00;;;;;;;;5097714;27;45583;-67
2022/04/09 01:51:10;;;;;;;;;12.00;9.00;;;;;;;;5097336;27;45981;-67
2022/04/09 01:53:36;;;;;;;;;7.67;7.67;;;;;;;;5097578;27;45368;-67
2022/04/09 01:56:01;;;;;;;;;10.00;7.67;;;;;;;;5097888;27;45344;-67
2022/04/09 01:58:26;;;;;;;;;8.33;8.33;;;;;;;;5091865;27;46743;-67
2022/04/09 02:00:58;;;;;;;;;12.67;8.33;;;;;;;;5095437;27;45829;-67
2022/04/09 02:03:23;;;;;;;;;5.67;5.67;;;;;;;;5101248;27;45527;-66
2022/04/09 02:05:49;;;;;;;;;27.33;23.00;;;;;;;;5101451;27;45461;-66
2022/04/09 02:08:14;;;;;;;;;13.33;10.33;;;;;;;;5101050;27;45458;-66
2022/04/09 02:10:39;;;;;;;;;7.33;7.33;;;;;;;;5100957;27;45444;-66
2022/04/09 02:13:10;;;;;;;;;7.00;7.00;;;;;;;;5101069;27;45428;-66
2022/04/09 02:15:35;;;;;;;;;10.67;6.67;;;;;;;;5101261;27;45359;-66
2022/04/09 02:18:01;;;;;;;;;7.33;7.00;;;;;;;;5100716;27;46710;-67
2022/04/09 02:20:26;;;;;;;;;11.33;7.00;;;;;;;;5101230;27;45393;-66
2022/04/09 02:22:51;;;;;;;;;6.00;6.00;;;;;;;;5101106;27;45294;-66
2022/04/09 02:25:17;;;;;;;;;11.33;6.00;;;;;;;;5100834;27;45453;-67
2022/04/09 02:27:42;;;;;;;;;6.33;4.67;;;;;;;;5100788;27;47297;-66
2022/04/09 02:30:09;;;;;;;;;8.33;6.33;;;;;;;;5100843;27;45217;-66
2022/04/09 02:32:44;;;;;;;;;13.33;5.00;;;;;;;;5100774;27;45405;-66
2022/04/09 02:35:09;;;;;;;;;7.00;4.33;;;;;;;;5100984;27;45476;-66
2022/04/09 02:37:34;;;;;;;;;8.33;5.33;;;;;;;;5100333;27;46401;-66
2022/04/09 02:40:01;;;;;;;;;12.33;9.67;;;;;;;;5100530;27;45444;-65
2022/04/09 02:42:26;;;;;;;;;7.00;5.67;;;;;;;;5100615;27;45437;-66
2022/04/09 02:44:51;;;;;;;;;6.00;4.33;;;;;;;;5100756;27;45546;-66
2022/04/09 02:47:16;;;;;;;;;13.33;6.33;;;;;;;;5100370;27;46587;-66
2022/04/09 02:49:41;;;;;;;;;8.00;6.00;;;;;;;;5100408;27;45383;-66
2022/04/09 02:52:07;;;;;;;;;9.00;6.00;;;;;;;;5100600;27;45527;-66
2022/04/09 02:54:32;;;;;;;;;4.67;4.00;;;;;;;;5099363;27;45492;-66
2022/04/09 02:56:57;;;;;;;;;4.00;4.00;;;;;;;;5093838;27;46567;-66
2022/04/09 02:59:23;;;;;;;;;7.00;6.33;;;;;;;;5079404;27;45343;-66
2022/04/09 03:01:48;;;;;;;;;8.00;6.67;;;;;;;;5078615;28;45289;-66
2022/04/09 03:04:14;;;;;;;;;8.67;6.00;;;;;;;;5076971;28;45479;-66
2022/04/09 03:06:39;;;;;;;;;7.00;7.00;;;;;;;;5077090;28;46999;-66
2022/04/09 03:09:04;;;;;;;;;6.00;4.00;;;;;;;;5076424;28;45332;-66
2022/04/09 03:11:30;;;;;;;;;11.33;9.00;;;;;;;;5076087;28;45418;-66
2022/04/09 03:13:55;;;;;;;;;7.00;7.00;;;;;;;;5076379;28;45400;-66
2022/04/09 03:16:20;;;;;;;;;8.33;7.00;;;;;;;;5076151;28;45607;-66
2022/04/09 03:18:45;;;;;;;;;10.00;8.00;;;;;;;;5076367;27;45561;-66
2022/04/09 03:21:11;;;;;;;;;7.00;4.00;;;;;;;;5058873;28;45388;-66
2022/04/09 03:23:36;;;;;;;;;8.33;5.67;;;;;;;;5079410;27;45422;-66
2022/04/09 03:26:01;;;;;;;;;6.33;6.33;;;;;;;;5077672;28;47737;-66
2022/04/09 03:28:27;;;;;;;;;8.67;8.00;;;;;;;;5090819;27;45326;-66
2022/04/09 03:30:52;;;;;;;;;10.33;9.00;;;;;;;;5094661;27;45434;-66
2022/04/09 03:33:17;;;;;;;;;9.33;7.67;;;;;;;;5096257;27;45253;-67
2022/04/09 03:35:43;;;;;;;;;7.67;6.00;;;;;;;;5097004;27;46386;-67
2022/04/09 03:38:11;;;;;;;;;11.67;7.00;;;;;;;;5089393;27;45482;-66
2022/04/09 03:40:37;;;;;;;;;8.00;6.00;;;;;;;;5077777;28;45451;-66
2022/04/09 03:43:02;;;;;;;;;10.00;8.00;;;;;;;;5095575;27;45478;-66
2022/04/09 03:45:27;;;;;;;;;7.00;6.00;;;;;;;;5082135;27;46115;-66
2022/04/09 03:47:53;;;;;;;;;9.00;6.00;;;;;;;;5074519;27;45354;-66
2022/04/09 03:50:18;;;;;;;;;10.33;7.33;;;;;;;;5082873;27;45450;-67
2022/04/09 03:52:43;;;;;;;;;7.67;7.00;;;;;;;;5058247;27;1135320;-66
2022/04/09 03:55:09;;;;;;;;;9.33;7.00;;;;;;;;5099123;27;45399;-66
2022/04/09 03:57:34;;;;;;;;;7.67;7.67;;;;;;;;5090295;27;45311;-68
2022/04/09 03:59:59;;;;;;;;;7.33;7.33;;;;;;;;5099415;27;45326;-67
2022/04/09 04:02:25;;;;;;;;;8.00;7.67;;;;;;;;5099215;27;45429;-67
2022/04/09 04:04:50;;;;;;;;;9.00;7.00;;;;;;;;5099299;27;45943;-68
2022/04/09 04:07:22;;;;;;;;;9.00;7.67;;;;;;;;5097572;27;45372;-67
2022/04/09 04:09:47;;;;;;;;;10.67;6.67;;;;;;;;5099266;27;45355;-66
2022/04/09 04:12:12;;;;;;;;;12.00;9.00;;;;;;;;5099141;27;45323;-66
2022/04/09 04:14:37;;;;;;;;;10.33;8.67;;;;;;;;5098691;27;46369;-66
2022/04/09 04:17:03;;;;;;;;;8.33;8.00;;;;;;;;5098945;27;45422;-66
2022/04/09 04:19:28;;;;;;;;;12.33;7.67;;;;;;;;5099128;27;45240;-66
2022/04/09 04:21:53;;;;;;;;;11.33;8.00;;;;;;;;5098110;27;45337;-67
2022/04/09 04:24:19;;;;;;;;;8.00;6.33;;;;;;;;5097293;27;47391;-66
2022/04/09 04:26:44;;;;;;;;;16.67;10.67;;;;;;;;5098522;27;45318;-66
2022/04/09 04:29:09;;;;;;;;;8.67;7.00;;;;;;;;5099002;27;45461;-66
2022/04/09 04:31:34;;;;;;;;;3.33;3.33;;;;;;;;5099234;27;45356;-66
2022/04/09 04:34:00;;;;;;;;;10.33;8.67;;;;;;;;5093913;27;45601;-66
2022/04/09 04:36:25;;;;;;;;;15.67;11.00;;;;;;;;5114608;27;45281;-66
2022/04/09 04:38:50;;;;;;;;;14.00;12.00;;;;;;;;5098689;27;45439;-66
2022/04/09 04:41:15;;;;;;;;;12.67;8.67;;;;;;;;5098781;27;45592;-66
2022/04/09 04:43:41;;;;;;;;;8.00;7.00;;;;;;;;5098524;27;46587;-67
2022/04/09 04:46:06;;;;;;;;;9.67;9.00;;;;;;;;5098779;27;45657;-66
2022/04/09 04:48:32;;;;;;;;;7.67;6.00;;;;;;;;5098817;27;45204;-66
2022/04/09 04:50:57;;;;;;;;;6.67;1.33;;;;;;;;5098775;27;45358;-67
2022/04/09 04:53:22;;;;;;;;;12.00;7.00;;;;;;;;5098212;27;45319;-66
2022/04/09 04:55:48;;;;;;;;;8.33;7.00;;;;;;;;5098464;27;45505;-67
2022/04/09 04:58:16;;;;;;;;;9.00;7.33;;;;;;;;5098595;27;45378;-66
2022/04/09 05:00:41;;;;;;;;;7.00;6.00;;;;;;;;5098404;27;45409;-66
2022/04/09 05:03:07;;;;;;;;;11.00;8.00;;;;;;;;5097605;27;47231;-66
2022/04/09 05:05:32;;;;;;;;;10.00;8.00;;;;;;;;5098246;27;45432;-66
2022/04/09 05:07:57;;;;;;;;;8.33;6.67;;;;;;;;5098208;27;45490;-66
2022/04/09 05:10:24;;;;;;;;;8.00;8.00;;;;;;;;5098495;27;45307;-66
2022/04/09 05:12:50;;;;;;;;;8.33;7.67;;;;;;;;5097132;27;45431;-66
2022/04/09 05:15:16;;;;;;;;;5.00;5.00;;;;;;;;5097880;27;45262;-66
2022/04/09 05:17:41;;;;;;;;;9.67;7.33;;;;;;;;5098289;27;45224;-67
2022/04/09 05:20:08;;;;;;;;;6.33;5.00;;;;;;;;5098142;27;45526;-67
2022/04/09 05:22:33;;;;;;;;;7.00;6.33;;;;;;;;5097728;27;46353;-67
2022/04/09 05:24:58;;;;;;;;;12.33;7.33;;;;;;;;5096841;27;45698;-67
2022/04/09 05:27:24;;;;;;;;;9.33;7.67;;;;;;;;5096377;27;45430;-67
2022/04/09 05:29:49;;;;;;;;;10.67;8.00;;;;;;;;5098053;27;45421;-67
2022/04/09 05:32:15;;;;;;;;;5.67;4.00;;;;;;;;5097705;27;46390;-66
2022/04/09 05:34:40;;;;;;;;;13.00;8.00;;;;;;;;5093376;27;45454;-66
2022/04/09 05:37:05;;;;;;;;;13.67;7.00;;;;;;;;5097692;27;45268;-67
2022/04/09 05:39:30;;;;;;;;;12.67;7.00;;;;;;;;5097661;27;45445;-67
2022/04/09 05:41:56;;;;;;;;;9.00;7.00;;;;;;;;5097630;27;46253;-67
2022/04/09 05:44:21;;;;;;;;;8.00;8.00;;;;;;;;5097725;27;45304;-67
2022/04/09 05:46:46;;;;;;;;;11.33;7.67;;;;;;;;5098136;27;45354;-67
2022/04/09 05:49:11;;;;;;;;;10.67;7.33;;;;;;;;5097689;27;45413;-67
2022/04/09 05:51:37;;;;;;;;;5.33;5.33;;;;;;;;5097553;27;46527;-67
2022/04/09 05:54:02;;;;;;;;;13.67;8.00;;;;;;;;5096982;27;45321;-67
2022/04/09 05:56:28;;;;;;;;;3.67;3.33;;;;;;;;5097657;27;45304;-67
2022/04/09 05:58:53;;;;;;;;;6.00;6.00;;;;;;;;5097873;27;45392;-67
2022/04/09 06:01:18;;;;;;;;;15.00;12.00;;;;;;;;5097002;27;46551;-66
2022/04/09 06:03:44;;;;;;;;;10.33;9.00;;;;;;;;5097469;27;45270;-67
2022/04/09 06:06:10;;;;;;;;;15.33;14.67;;;;;;;;5097805;27;45321;-67
2022/04/09 06:08:35;;;;;;;;;14.33;9.67;;;;;;;;5097816;27;45214;-67
2022/04/09 06:11:00;;;;;;;;;15.67;12.33;;;;;;;;5097270;27;45497;-66
2022/04/09 06:13:26;;;;;;;;;13.67;8.00;;;;;;;;5096913;27;45419;-66
2022/04/09 06:15:52;;;;;;;;;9.00;7.33;;;;;;;;5089806;27;45214;-67
2022/04/09 06:18:17;;;;;;;;;12.33;7.67;;;;;;;;5088054;27;45381;-67
2022/04/09 06:20:42;;;;;;;;;12.00;9.00;;;;;;;;5097120;27;46231;-68
2022/04/09 06:23:08;;;;;;;;;5.67;5.67;;;;;;;;5097308;27;46031;-68
2022/04/09 06:25:33;;;;;;;;;19.00;16.00;;;;;;;;5096829;27;45560;-68
2022/04/09 06:27:59;;;;;;;;;10.00;9.67;;;;;;;;5097274;27;45903;-68
2022/04/09 06:30:24;;;;;;;;;11.33;9.00;;;;;;;;5097207;27;47050;-67
2022/04/09 06:32:49;;;;;;;;;10.33;8.67;;;;;;;;5093430;27;45513;-67
2022/04/09 06:35:14;;;;;;;;;10.67;8.00;;;;;;;;5095914;27;45374;-67
2022/04/09 06:37:40;;;;;;;;;8.67;4.67;;;;;;;;5097334;27;45441;-67
2022/04/09 06:40:09;;;;;;;;;11.33;7.33;;;;;;;;5096944;27;46420;-68
2022/04/09 06:42:35;;;;;;;;;8.00;6.33;;;;;;;;5096879;27;45434;-68
2022/04/09 06:45:01;;;;;;;;;6.67;6.33;;;;;;;;5097998;27;45132;-68
2022/04/09 06:47:27;;;;;;;;;10.33;8.00;;;;;;;;5100555;27;45514;-67
2022/04/09 06:49:52;;;;;;;;;10.33;8.33;;;;;;;;5099893;27;46222;-67
2022/04/09 06:52:17;;;;;;;;;13.33;10.00;;;;;;;;5100319;27;45336;-68
2022/04/09 06:54:42;;;;;;;;;11.67;9.00;;;;;;;;5100253;27;45254;-67
2022/04/09 06:57:07;;;;;;;;;13.67;10.67;;;;;;;;5099533;27;45370;-67
2022/04/09 06:59:33;;;;;;;;;6.00;6.00;;;;;;;;5099861;27;46534;-67
2022/04/09 07:01:58;;;;;;;;;9.33;8.33;;;;;;;;5099873;27;45418;-68
2022/04/09 07:04:23;;;;;;;;;11.33;8.67;;;;;;;;5099980;27;45288;-67
2022/04/09 07:06:48;;;;;;;;;14.67;11.67;;;;;;;;5100201;27;45451;-67
2022/04/09 07:09:13;;;;;;;;;12.67;10.00;;;;;;;;5099424;27;46594;-67
2022/04/09 07:11:39;;;;;;;;;9.00;6.67;;;;;;;;5100048;27;45589;-67
2022/04/09 07:14:04;;;;;;;;;8.00;5.67;;;;;;;;5099675;27;45492;-67
2022/04/09 07:16:29;;;;;;;;;10.00;7.00;;;;;;;;5099943;27;45386;-67
2022/04/09 07:18:55;;;;;;;;;10.00;6.00;;;;;;;;5099444;27;45464;-67
2022/04/09 07:21:20;;;;;;;;;9.33;6.00;;;;;;;;5099460;27;45322;-67
2022/04/09 07:23:45;;;;;;;;;8.00;6.00;;;;;;;;5099875;27;45347;-68
2022/04/09 07:26:10;;;;;;;;;5.00;5.00;;;;;;;;5100134;27;45340;-67
2022/04/09 07:28:36;;;;;;;;;6.00;5.00;;;;;;;;5099472;27;45516;-67
2022/04/09 07:31:01;;;;;;;;;8.00;5.67;;;;;;;;5098883;27;45482;-67
2022/04/09 07:33:29;;;;;;;;;8.25;7.50;;;;;;;;5095112;27;45301;-65
2022/04/09 07:35:54;;;;;;;;;12.00;6.67;;;;;;;;5100007;27;45315;-65
2022/04/09 07:38:20;;;;;;;;;13.33;11.00;;;;;;;;5099042;27;46826;-66
2022/04/09 07:40:45;;;;;;;;;10.75;7.25;;;;;;;;5099601;27;45236;-65
2022/04/09 07:43:10;;;;;;;;;7.00;7.00;;;;;;;;5098787;27;45221;-65
2022/04/09 07:45:35;;;;;;;;;4.25;4.25;;;;;;;;5099854;27;45323;-65
2022/04/09 07:48:01;;;;;;;;;7.50;5.00;;;;;;;;5099737;27;46503;-65
2022/04/09 07:50:27;;;;;;;;;8.67;6.00;;;;;;;;5099276;27;45348;-66
2022/04/09 07:52:53;;;;;;;;;7.67;6.67;;;;;;;;5099012;27;45237;-65
2022/04/09 07:55:18;;;;;;;;;5.33;5.33;;;;;;;;5099199;27;46193;-66
2022/04/09 07:57:44;;;;;;;;;7.00;7.00;;;;;;;;5097760;27;46472;-67
2022/04/09 08:00:10;;;;;;;;;9.00;5.67;;;;;;;;5089123;27;45833;-67
2022/04/09 08:02:35;;;;;;;;;8.33;6.00;;;;;;;;5092504;27;45445;-67
2022/04/09 08:05:01;;;;;;;;;9.00;5.00;;;;;;;;5098815;27;45391;-74
2022/04/09 08:07:26;;;;;;;;;7.33;6.00;;;;;;;;5099062;27;45622;-69
2022/04/09 08:09:51;;;;;;;;;8.00;7.00;;;;;;;;5099152;27;45395;-68
2022/04/09 08:12:17;;;;;;;;;4.75;4.75;;;;;;;;5099431;27;45370;-69
2022/04/09 08:14:42;;;;;;;;;7.67;5.00;;;;;;;;5079782;27;45352;-70
2022/04/09 08:17:08;;;;;;;;;5.67;5.67;;;;;;;;5096376;27;46759;-71
2022/04/09 08:19:34;;;;;;;;;8.67;7.33;;;;;;;;5095638;27;45707;-66
2022/04/09 08:22:00;;;;;;;;;8.33;6.67;;;;;;;;5099170;27;45429;-66
2022/04/09 08:24:25;;;;;;;;;6.00;6.00;;;;;;;;5099206;27;45489;-68
2022/04/09 08:26:50;;;;;;;;;7.00;6.33;;;;;;;;5098153;27;45655;-68
2022/04/09 08:29:19;;;;;;;;;6.00;5.00;;;;;;;;5098589;27;45401;-67
2022/04/09 08:31:47;;;;;;;;;9.00;8.67;;;;;;;;5097041;27;45491;-65
2022/04/09 08:34:12;;;;;;;;;7.00;6.33;;;;;;;;5098936;27;45374;-66
2022/04/09 08:36:37;;;;;;;;;9.00;6.00;;;;;;;;5098162;27;45478;-67
2022/04/09 08:39:03;;;;;;;;;7.33;7.00;;;;;;;;5081556;27;45523;-67
2022/04/09 08:41:28;;;;;;;;;7.00;6.00;;;;;;;;5098539;27;45304;-68
2022/04/09 08:43:54;;;;;;;;;10.67;8.33;;;;;;;;5090119;27;45297;-71
2022/04/09 08:46:19;;;;;;;;;12.00;8.00;;;;;;;;5077435;27;46242;-66
2022/04/09 08:48:46;;;;;;;;;7.33;6.67;;;;;;;;5078060;27;45248;-68
2022/04/09 08:51:11;;;;;;;;;8.00;7.00;;;;;;;;5090622;27;45419;-66
2022/04/09 08:53:37;;;;;;;;;8.33;8.33;;;;;;;;5078051;27;45267;-66
2022/04/09 08:56:02;;;;;;;;;7.33;7.33;;;;;;;;5056832;27;47295;-68
2022/04/09 08:58:29;;;;;;;;;9.00;8.50;;;;;;;;5089486;27;45485;-67
2022/04/09 09:00:54;;;;;;;;;8.67;7.33;;;;;;;;5090396;27;45491;-64
2022/04/09 09:03:20;;;;;;;;;7.33;7.33;;;;;;;;5080929;27;45465;-68
2022/04/09 09:05:48;;;;;;;;;5.67;5.67;;;;;;;;5077213;27;46573;-66
2022/04/09 09:08:13;;;;;;;;;10.00;8.67;;;;;;;;5077800;27;45518;-70
2022/04/09 09:10:39;;;;;;;;;11.00;9.33;;;;;;;;5082378;27;45257;-67
2022/04/09 09:13:06;;;;;;;;;9.33;7.00;;;;;;;;5095549;27;45390;-67
2022/04/09 09:15:55;;;;;;;;;8.67;8.33;;;;;;;;5084291;27;48488;-68
2022/04/09 09:18:20;;;;;;;;;9.00;7.25;;;;;;;;5071109;27;45438;-64
2022/04/09 09:20:49;;;;;;;;;21.67;21.33;;;;;;;;5078173;27;45291;-67
2022/04/09 09:23:21;;;;;;;;;8.67;8.33;;;;;;;;5076979;28;45478;-65
2022/04/09 09:25:49;;;;;;;;;10.33;8.33;;;;;;;;5075734;28;45723;-66
2022/04/09 09:28:21;;;;;;;;;7.33;7.33;;;;;;;;5076267;28;45453;-68
2022/04/09 09:30:47;;;;;;;;;8.00;7.00;;;;;;;;5075693;28;45494;-67
2022/04/09 09:33:12;;;;;;;;;6.33;6.33;;;;;;;;5076231;28;45743;-66
2022/04/09 09:35:51;;;;;;;;;11.00;8.00;;;;;;;;5075485;28;46704;-66
2022/04/09 09:38:23;;;;;;;;;9.33;8.33;;;;;;;;5075628;28;45392;-65
2022/04/09 09:40:49;;;;;;;;;4.75;4.75;;;;;;;;5075513;28;45481;-66
2022/04/09 09:43:15;;;;;;;;;13.33;10.33;;;;;;;;5075348;28;45456;-67
2022/04/09 09:45:41;;;;;;;;;11.00;11.00;;;;;;;;5075321;28;46259;-68
2022/04/09 09:48:17;;;;;;;;;6.00;6.00;;;;;;;;5075536;28;45419;-67
2022/04/09 09:50:43;;;;;;;;;5.00;4.00;;;;;;;;5075121;28;46823;-65
2022/04/09 09:53:08;;;;;;;;;7.33;6.00;;;;;;;;5075472;28;45733;-65
2022/04/09 09:55:46;;;;;;;;;8.33;6.67;;;;;;;;5073891;28;46381;-65
2022/04/09 09:58:16;;;;;;;;;8.00;6.00;;;;;;;;5074806;28;45391;-66
2022/04/09 10:00:42;;;;;;;;;10.00;7.00;;;;;;;;5075768;28;45366;-66
2022/04/09 10:03:09;;;;;;;;;6.00;5.00;;;;;;;;5074845;27;46391;-65
2022/04/09 10:05:36;;;;;;;;;10.67;7.00;;;;;;;;5057418;28;47536;-66
2022/04/09 10:08:02;;;;;;;;;5.67;5.33;;;;;;;;5075692;28;45562;-66
2022/04/09 10:10:28;;;;;;;;;6.00;5.33;;;;;;;;5076300;28;45444;-66
2022/04/09 10:12:55;;;;;;;;;6.00;4.00;;;;;;;;5075988;28;45402;-66
2022/04/09 10:15:25;;;;;;;;;11.00;11.00;;;;;;;;5057529;28;46526;-67
2022/04/09 10:17:52;;;;;;;;;6.33;4.67;;;;;;;;5075952;28;45286;-69
2022/04/09 10:20:19;;;;;;;;;7.00;6.00;;;;;;;;5077312;28;45474;-67
2022/04/09 10:22:48;;;;;;;;;16.67;13.33;;;;;;;;5079051;28;45605;-66
2022/04/09 10:25:14;;;;;;;;;5.33;4.33;;;;;;;;5079748;28;46984;-69
2022/04/09 10:27:40;;;;;;;;;7.00;6.00;;;;;;;;5080118;28;45630;-69
2022/04/09 10:30:09;;;;;;;;;4.00;2.67;;;;;;;;5078767;28;45429;-67
2022/04/09 10:32:44;;;;;;;;;2.67;2.67;;;;;;;;5078729;28;45590;-69
2022/04/09 10:35:28;;;;;;;;;4.00;4.00;;;;;;;;5078750;28;45798;-69
2022/04/09 10:40:34;;;;;;;;;8.00;6.00;;;;;;;;5078477;28;45459;-67
2022/04/09 10:43:01;;;;;;;;;4.00;4.00;;;;;;;;5079136;28;45476;-66
2022/04/09 10:45:27;;;;;;;;;3.33;3.33;;;;;;;;5078737;28;47335;-66
2022/04/09 10:48:14;;;;;;;;;6.00;4.00;;;;;;;;5078776;28;45478;-67
2022/04/09 10:50:51;;;;;;;;;6.67;4.33;;;;;;;;5064122;28;45426;-76
2022/04/09 10:53:16;;;;;;;;;2.33;2.33;;;;;;;;5079336;28;45496;-68
2022/04/09 10:55:42;;;;;;;;;17.00;16.67;;;;;;;;5080021;28;46041;-65
2022/04/09 10:58:10;;;;;;;;;9.00;7.00;;;;;;;;5079478;28;45303;-67
2022/04/09 11:00:37;;;;;;;;;4.00;4.00;;;;;;;;5079307;28;45436;-66
2022/04/09 11:03:14;;;;;;;;;6.00;4.00;;;;;;;;5078707;28;45518;-67
2022/04/09 11:05:41;;;;;;;;;4.00;2.25;;;;;;;;5078062;28;45548;-66
2022/04/09 11:08:07;;;;;;;;;5.00;5.00;;;;;;;;5077112;27;45685;-67
2022/04/09 11:10:32;;;;;;;;;4.00;3.67;;;;;;;;5077490;28;45551;-68
2022/04/09 11:12:57;;;;;;;;;8.67;5.33;;;;;;;;5078199;28;45434;-68
2022/04/09 11:15:23;;;;;;;;;8.00;5.00;;;;;;;;5078577;28;45404;-67
2022/04/09 11:17:49;;;;;;;;;7.67;4.00;;;;;;;;5077497;28;45436;-67
2022/04/09 11:20:15;;;;;;;;;6.33;6.33;;;;;;;;5078561;28;45248;-67
2022/04/09 11:22:40;;;;;;;;;10.00;5.00;;;;;;;;5078956;28;45504;-67
2022/04/09 11:25:07;;;;;;;;;6.00;6.00;;;;;;;;5079445;28;45416;-67
2022/04/09 11:27:32;;;;;;;;;4.75;2.75;;;;;;;;5079431;28;45324;-68
2022/04/09 11:29:58;;;;;;;;;0.00;0.00;;;;;;;;5079164;28;45316;-68
2022/04/09 11:32:24;;;;;;;;;9.67;8.00;;;;;;;;5087501;27;45418;-68
2022/04/09 11:34:50;;;;;;;;;4.00;4.00;;;;;;;;5099878;27;45804;-68
2022/04/09 11:37:15;;;;;;;;;6.33;5.67;;;;;;;;5086462;27;45539;-68
2022/04/09 11:39:41;;;;;;;;;7.00;5.33;;;;;;;;5094683;27;45423;-67
2022/04/09 11:42:07;;;;;;;;;5.00;5.00;;;;;;;;5090323;27;45181;-68
2022/04/09 11:44:32;;;;;;;;;5.67;3.67;;;;;;;;5080188;27;47257;-68
2022/04/09 11:46:58;;;;;;;;;3.00;3.00;;;;;;;;5079268;28;45227;-68
2022/04/09 11:49:30;;;;;;;;;2.33;2.33;;;;;;;;5094739;27;45293;-68
2022/04/09 11:51:56;;;;;;;;;2.00;2.00;;;;;;;;5092100;27;45460;-68
2022/04/09 11:54:21;;;;;;;;;5.00;5.00;;;;;;;;5078510;27;45416;-68
2022/04/09 11:56:46;;;;;;;;;5.33;5.33;;;;;;;;5077490;28;45448;-67
2022/04/09 11:59:13;;;;;;;;;2.75;2.25;;;;;;;;5078235;28;45486;-68
2022/04/09 12:01:38;;;;;;;;;2.00;2.00;;;;;;;;5077025;28;45574;-68
2022/04/09 12:04:04;;;;;;;;;4.00;2.00;;;;;;;;5078544;27;45438;-70
2022/04/09 12:06:29;;;;;;;;;4.50;4.50;;;;;;;;5076851;28;45495;-69
2022/04/09 12:08:54;;;;;;;;;5.33;5.00;;;;;;;;5077698;28;45382;-74
2022/04/09 12:11:20;;;;;;;;;3.25;3.25;;;;;;;;5078897;27;45447;-68
2022/04/09 12:13:49;;;;;;;;;4.67;3.00;;;;;;;;5075822;28;46422;-68
2022/04/09 12:16:14;;;;;;;;;2.33;2.33;;;;;;;;5078383;28;45304;-68
2022/04/09 12:18:40;;;;;;;;;5.33;4.33;;;;;;;;5077801;28;45479;-70
2022/04/09 12:21:25;;;;;;;;;3.75;3.75;;;;;;;;5077819;27;45707;-72
2022/04/09 12:24:07;;;;;;;;;5.67;5.00;;;;;;;;5081107;27;46184;-72
2022/04/09 12:26:36;;;;;;;;;4.00;4.00;;;;;;;;5077365;28;46144;-70
2022/04/09 12:29:08;;;;;;;;;4.00;4.00;;;;;;;;5075903;27;45880;-70
2022/04/09 12:31:34;;;;;;;;;19.00;17.00;;;;;;;;5078600;27;45424;-69
2022/04/09 12:34:00;;;;;;;;;5.00;5.00;;;;;;;;5076433;27;45515;-70
2022/04/09 12:36:26;;;;;;;;;5.00;5.00;;;;;;;;5091757;27;45497;-70
2022/04/09 12:38:51;;;;;;;;;6.67;4.00;;;;;;;;5083247;27;45372;-71
2022/04/09 12:41:16;;;;;;;;;7.25;6.00;;;;;;;;5076465;27;45443;-69
2022/04/09 12:43:43;;;;;;;;;6.67;5.67;;;;;;;;5075033;28;46694;-69
2022/04/09 12:46:12;;;;;;;;;6.67;6.00;;;;;;;;5077081;28;45457;-69
2022/04/09 12:48:38;;;;;;;;;4.75;3.25;;;;;;;;5087742;27;45415;-69
2022/04/09 12:51:04;;;;;;;;;3.25;3.25;;;;;;;;5096340;27;45433;-69
2022/04/09 12:53:29;;;;;;;;;4.50;4.50;;;;;;;;5097801;27;46480;-68
2022/04/09 12:55:54;;;;;;;;;2.00;2.00;;;;;;;;5096724;27;45437;-69
2022/04/09 12:58:19;;;;;;;;;3.00;3.00;;;;;;;;5098190;27;45230;-69
2022/04/09 13:00:45;;;;;;;;;2.00;2.00;;;;;;;;5096826;27;45368;-69
2022/04/09 13:03:10;;;;;;;;;3.00;2.00;;;;;;;;5097542;27;45357;-69
2022/04/09 13:05:35;;;;;;;;;2.00;2.00;;;;;;;;5096760;27;45446;-70
2022/04/09 13:08:00;;;;;;;;;9.67;8.67;;;;;;;;5096309;27;45442;-70
2022/04/09 13:10:26;;;;;;;;;2.00;1.00;;;;;;;;5077903;27;45341;-70
2022/04/09 13:12:52;;;;;;;;;4.50;4.00;;;;;;;;5077192;28;46305;-72
2022/04/09 13:15:17;;;;;;;;;3.00;2.00;;;;;;;;5077178;28;45420;-71
2022/04/09 13:17:42;;;;;;;;;1.50;1.50;;;;;;;;5077481;28;45641;-70
2022/04/09 13:20:08;;;;;;;;;2.00;1.00;;;;;;;;5078242;28;45218;-71
2022/04/09 13:22:34;;;;;;;;;1.25;1.25;;;;;;;;5077904;28;46252;-71
2022/04/09 13:24:59;;;;;;;;;1.00;1.00;;;;;;;;5076839;28;45238;-70
2022/04/09 13:27:25;;;;;;;;;0.00;0.00;;;;;;;;5076139;27;45422;-70
2022/04/09 13:29:50;;;;;;;;;0.00;0.00;;;;;;;;5077485;27;45447;-70
2022/04/09 13:32:16;;;;;;;;;2.00;2.00;;;;;;;;5075228;28;46624;-71
2022/04/09 13:34:41;;;;;;;;;1.00;1.00;;;;;;;;5076968;28;45410;-70
2022/04/09 13:37:07;;;;;;;;;1.50;1.00;;;;;;;;5082638;27;45396;-71
2022/04/09 13:39:32;;;;;;;;;1.00;1.00;;;;;;;;5080705;27;45479;-71
2022/04/09 13:41:58;;;;;;;;;3.00;1.00;;;;;;;;5076647;28;46191;-71
2022/04/09 13:44:23;;;;;;;;;2.00;0.25;;;;;;;;5076544;28;45723;-71
2022/04/09 13:46:48;;;;;;;;;3.00;3.00;;;;;;;;5076517;28;47047;-71
2022/04/09 13:49:14;;;;;;;;;1.75;1.75;;;;;;;;5081703;27;46985;-70
2022/04/09 13:51:39;;;;;;;;;2.00;2.00;;;;;;;;5075945;28;46363;-71
2022/04/09 13:54:04;;;;;;;;;1.00;1.00;;;;;;;;5077056;28;45581;-72
2022/04/09 13:56:30;;;;;;;;;1.00;1.00;;;;;;;;5070470;28;45490;-71
2022/04/09 13:58:55;;;;;;;;;1.00;1.00;;;;;;;;5077639;28;45458;-70
2022/04/09 14:01:21;;;;;;;;;1.00;0.75;;;;;;;;5063896;28;48216;-71
2022/04/09 14:03:46;;;;;;;;;1.00;0.00;;;;;;;;5070960;28;45381;-71
2022/04/09 14:06:11;;;;;;;;;0.00;0.00;;;;;;;;5078589;28;45720;-71
2022/04/09 14:08:36;;;;;;;;;3.00;1.00;;;;;;;;5076061;28;45548;-67
2022/04/09 14:11:02;;;;;;;;;0.50;0.50;;;;;;;;5060017;28;47406;-70
2022/04/09 14:13:27;;;;;;;;;1.50;1.00;;;;;;;;5059863;28;45725;-71
2022/04/09 14:15:53;;;;;;;;;1.00;1.00;;;;;;;;5059850;28;45408;-71
2022/04/09 14:18:18;;;;;;;;;1.50;1.50;;;;;;;;5059839;28;45350;-70
2022/04/09 14:20:43;;;;;;;;;1.00;1.00;;;;;;;;5059359;28;45449;-71
2022/04/09 14:23:09;;;;;;;;;1.00;1.00;;;;;;;;5059689;28;45403;-71
2022/04/09 14:25:34;;;;;;;;;1.50;1.50;;;;;;;;5071775;28;46725;-71
2022/04/09 14:27:59;;;;;;;;;1.00;1.00;;;;;;;;5075262;28;45337;-71
2022/04/09 14:30:25;;;;;;;;;1.00;1.00;;;;;;;;5075248;28;46261;-71
2022/04/09 14:32:50;;;;;;;;;1.25;1.25;;;;;;;;5059517;28;45562;-71
2022/04/09 14:35:17;;;;;;;;;1.00;1.00;;;;;;;;5069081;28;45288;-71